Aeroporto :
LOGIN :

Iscrizione | Disclaimer

   EN    FR    IT 

 










Sommario :    VFR   VFR Marginale   IFR   IFR Intensivo   IFR Molto Intensivo
Visibilità : 
Base nubi : 
>= 8 km
>= 3000ft
5 / 8 km
1000 / 3000 ft
1500m / 5 km
500 / 1000 ft
800 / 1500m
200 / 500 ft
< 800m
< 200 ft
Simboli :   Temporali  Nebbia  Neve Forte  Precipitazioni Forti  Vento > 20 kt
SIGMETs :   Varie  Temporali  Ghiacco  Turbolenza  Onda orograficha  Ceneri Vulcaniche






- Altitudine del aeroporto : 2077 ft
- Codice IATA : FMM


EDJA - Memmingen

ULTIMO METAR :
  • 021850Z AUTO 20007KT 9999 // SCT072/// 06/M02 Q1010

METARs OBSOLETI :
  • 021820Z AUTO 21006KT 9999 // NCD 07/M03 Q1010
  • 021750Z AUTO 22007KT 9999 // NCD 09/M04 Q1009
  • 021720Z AUTO 22006KT 9999 // NCD 10/M03 Q1009
  • 021650Z AUTO 24007KT 210V270 9999 // NCD 11/M05 Q1009
  • 021620Z AUTO 26009KT 9999 // NCD 12/M04 Q1009

TAF TAF EDJA
Valido dal 02 a 19 ore il 03 a 03 ore UTC


021822Z 0219/0303 23004KT 9999 SCT050



MetMap, La meteo Aeronautica in un colpo d'occhio ! - Copyright ORBIFLY Dicembre 2007 - Disclaimer

ORBIFLY MET'MAP TEAM :

Programmazione e sviluppo : Alexandra Zaïnal
Concezione : Baudouin d'Aumeries
Aiuto per la programmazione : Marc-Olivier Méhu
Supporto tecnico e logistico : Manuel Goepfert
Aiuto per la traduzione : Arnaldo La Scala

Contatto : metmap@orbifly.com




FONTI E CREDITI :

   NOAA